Time;durP1;ratioP1;P1;durP2;ratioP2;P2;SDS_P1;SDS_P2;PMS_P1;PMS_P2;Temp;Humidity;BMP_temperature;BMP_pressure;BME280_temperature;BME280_humidity;BME280_pressure;Samples;Min_cycle;Max_cycle;Signal;HPM_P1;HPM_P2
2023/02/18 00:01:26;;;;;;;;;18.25;17.00;;;;;14.51;61.07;102399.00;6276896;22;46927;-68
2023/02/18 00:03:52;;;;;;;;;13.75;12.25;;;;;14.52;61.01;102400.75;6250647;22;45431;-68
2023/02/18 00:06:20;;;;;;;;;16.00;15.50;;;;;14.47;60.71;102387.53;6278847;22;45292;-68
2023/02/18 00:08:47;;;;;;;;;14.00;14.00;;;;;14.52;61.00;102393.69;6250709;22;45375;-68
2023/02/18 00:11:13;;;;;;;;;14.50;14.00;;;;;14.53;60.58;102391.94;6277927;22;45260;-68
2023/02/18 00:13:39;;;;;;;;;12.00;12.00;;;;;14.45;61.09;102374.31;6278865;22;45244;-68
2023/02/18 00:16:08;;;;;;;;;14.75;13.25;;;;;14.52;60.77;102385.75;6278903;22;45180;-68
2023/02/18 00:18:34;;;;;;;;;16.75;14.75;;;;;14.49;60.68;102391.06;6270785;22;45759;-68
2023/02/18 00:21:02;;;;;;;;;15.00;12.50;;;;;14.50;61.14;102391.94;6278448;22;45321;-68
2023/02/18 00:23:27;;;;;;;;;16.00;14.50;;;;;14.47;60.84;102383.13;6249669;22;45270;-68
2023/02/18 00:26:00;;;;;;;;;14.75;14.75;;;;;14.46;60.70;102375.19;6250805;22;45198;-68
2023/02/18 00:28:25;;;;;;;;;13.75;13.75;;;;;14.50;60.85;102391.94;6278559;22;45447;-68
2023/02/18 00:30:51;;;;;;;;;15.25;14.25;;;;;14.50;60.80;102395.44;6247715;22;46991;-68
2023/02/18 00:33:16;;;;;;;;;16.00;14.50;;;;;14.46;60.88;102381.38;6278489;22;45248;-68
2023/02/18 00:35:41;;;;;;;;;17.75;14.00;;;;;14.47;60.99;102383.13;6278654;22;45313;-68
2023/02/18 00:38:07;;;;;;;;;17.50;13.50;;;;;14.46;61.04;102391.06;6250822;22;45336;-68
2023/02/18 00:40:36;;;;;;;;;20.00;18.00;;;;;14.43;61.21;102385.81;6278212;22;45149;-68
2023/02/18 00:43:02;;;;;;;;;14.00;14.00;;;;;14.42;61.15;102390.19;6278051;22;45348;-68
2023/02/18 00:45:27;;;;;;;;;16.75;16.75;;;;;14.42;61.02;102389.31;6278566;22;45386;-68
2023/02/18 00:47:52;;;;;;;;;14.50;14.50;;;;;14.39;60.99;102389.31;6278439;22;45543;-68
2023/02/18 00:50:18;;;;;;;;;14.00;13.00;;;;;14.43;60.83;102391.09;6278727;22;46075;-68
2023/02/18 00:52:43;;;;;;;;;17.00;14.00;;;;;14.42;60.86;102384.03;6278713;22;45321;-68
2023/02/18 00:55:08;;;;;;;;;15.25;15.25;;;;;14.38;60.84;102367.28;6278931;22;45248;-68
2023/02/18 00:57:34;;;;;;;;;17.00;15.50;;;;;14.39;60.94;102373.44;6278044;22;45350;-68
2023/02/18 00:59:59;;;;;;;;;14.25;13.25;;;;;14.39;61.08;102374.34;6278676;22;45242;-70
2023/02/18 01:02:24;;;;;;;;;15.75;13.75;;;;;14.36;61.25;102374.34;6277430;22;45400;-68
2023/02/18 01:04:50;;;;;;;;;14.00;13.50;;;;;14.36;60.81;102371.69;6250564;22;45326;-68
2023/02/18 01:07:15;;;;;;;;;14.25;13.00;;;;;14.34;60.95;102372.59;6250380;22;45866;-68
2023/02/18 01:09:40;;;;;;;;;15.25;15.25;;;;;14.29;61.06;102357.63;6250782;22;46843;-68
2023/02/18 01:12:06;;;;;;;;;14.75;14.75;;;;;14.32;60.78;102364.66;6277952;22;45197;-68
2023/02/18 01:14:31;;;;;;;;;15.00;15.00;;;;;14.33;61.31;102365.56;6247136;22;45131;-68
2023/02/18 01:16:56;;;;;;;;;17.25;17.25;;;;;14.30;60.98;102359.41;6276080;22;45261;-68
2023/02/18 01:19:22;;;;;;;;;18.25;18.25;;;;;14.32;60.78;102364.66;6249300;22;46972;-68
2023/02/18 01:21:47;;;;;;;;;19.00;18.25;;;;;14.29;61.08;102362.06;6276909;22;45280;-68
2023/02/18 01:24:12;;;;;;;;;21.25;21.00;;;;;14.32;60.76;102364.66;6277356;22;45396;-68
2023/02/18 01:26:38;;;;;;;;;22.25;20.00;;;;;14.32;61.33;102355.88;6247749;22;45257;-68
2023/02/18 01:29:03;;;;;;;;;24.25;22.00;;;;;14.32;60.88;102363.81;6275141;22;47323;-68
2023/02/18 01:31:28;;;;;;;;;24.50;24.25;;;;;14.33;61.39;102362.94;6277118;22;45187;-68
2023/02/18 01:33:54;;;;;;;;;30.25;26.75;;;;;14.30;61.08;102361.16;6276883;22;45176;-68
2023/02/18 01:36:19;;;;;;;;;27.75;26.25;;;;;14.30;61.13;102353.22;6276994;22;45171;-68
2023/02/18 01:38:44;;;;;;;;;28.00;25.25;;;;;14.29;61.06;102360.28;6276379;22;46357;-68
2023/02/18 01:41:10;;;;;;;;;13.00;12.25;;;;;14.25;61.53;102347.97;6276666;22;45233;-68
2023/02/18 01:43:35;;;;;;;;;17.75;17.75;;;;;14.26;61.03;102352.38;6249007;22;45218;-68
2023/02/18 01:46:06;;;;;;;;;22.75;21.25;;;;;14.21;61.19;102346.19;6277264;22;45394;-67
2023/02/18 01:48:40;;;;;;;;;22.00;20.50;;;;;14.24;61.40;102354.13;6278107;22;45522;-67
2023/02/18 01:51:10;;;;;;;;;19.75;18.75;;;;;14.23;60.82;102346.22;6277469;22;45340;-68
2023/02/18 01:53:43;;;;;;;;;14.50;14.25;;;;;14.21;61.21;102343.56;6277781;22;45394;-67
2023/02/18 01:56:15;;;;;;;;;19.50;18.75;;;;;14.19;61.43;102339.16;6277015;22;45412;-68
2023/02/18 01:58:42;;;;;;;;;12.75;12.75;;;;;14.16;61.09;102339.19;6277186;22;46281;-68
2023/02/18 02:01:08;;;;;;;;;16.25;15.75;;;;;14.16;60.87;102329.47;6279367;22;45389;-68
2023/02/18 02:03:34;;;;;;;;;13.50;13.50;;;;;14.11;60.86;102325.97;6251688;22;45194;-68
2023/02/18 02:05:59;;;;;;;;;12.00;12.00;;;;;14.14;60.67;102331.25;6251632;22;45199;-68
2023/02/18 02:08:25;;;;;;;;;16.00;12.50;;;;;14.13;61.30;102324.22;6251016;22;46547;-68
2023/02/18 02:11:13;;;;;;;;;11.00;11.00;;;;;14.13;61.21;102324.22;6251414;22;45137;-68
2023/02/18 02:13:56;;;;;;;;;13.25;13.25;;;;;14.11;61.11;102315.41;6279889;22;45350;-68
2023/02/18 02:16:30;;;;;;;;;12.00;10.75;;;;;14.07;60.89;102314.53;6251311;22;45225;-68
2023/02/18 02:19:19;;;;;;;;;12.00;11.00;;;;;14.09;60.93;102323.34;6245648;22;46974;-68
2023/02/18 02:22:03;;;;;;;;;10.00;10.00;;;;;14.08;60.79;102316.28;6241275;22;45374;-68
2023/02/18 02:24:45;;;;;;;;;12.50;12.25;;;;;14.04;60.74;102303.13;6272387;22;45190;-68
2023/02/18 02:27:18;;;;;;;;;11.00;11.00;;;;;14.07;60.83;102311.88;6271344;22;45345;-68
2023/02/18 02:30:08;;;;;;;;;9.75;9.25;;;;;14.06;60.65;102314.53;6272218;22;46061;-68
2023/02/18 02:32:57;;;;;;;;;7.50;7.50;;;;;14.04;61.10;102303.13;6248405;22;45409;-67
2023/02/18 02:35:31;;;;;;;;;13.00;11.75;;;;;13.96;60.60;102296.09;6248679;22;45219;-68
2023/02/18 02:38:11;;;;;;;;;13.00;11.00;;;;;14.02;60.74;102299.59;6247931;22;45393;-68
2023/02/18 02:40:58;;;;;;;;;11.75;10.75;;;;;14.01;61.02;102297.81;6248015;22;45349;-68
2023/02/18 02:43:45;;;;;;;;;9.25;9.25;;;;;14.01;60.96;102295.19;6271766;22;45797;-68
2023/02/18 02:46:16;;;;;;;;;11.75;9.50;;;;;13.99;60.83;102289.91;6248614;22;45343;-68
2023/02/18 02:48:45;;;;;;;;;9.50;8.00;;;;;13.98;60.69;102285.50;6247792;22;45253;-68
2023/02/18 02:51:26;;;;;;;;;11.00;10.00;;;;;13.95;60.48;102278.47;6247747;22;45824;-68
2023/02/18 02:53:52;;;;;;;;;10.25;10.25;;;;;13.95;61.31;102273.19;6247950;22;45335;-67
2023/02/18 02:56:23;;;;;;;;;12.75;10.00;;;;;13.94;60.42;102281.97;6245245;22;45678;-68
2023/02/18 02:59:01;;;;;;;;;10.75;9.75;;;;;13.93;60.84;102280.22;6248187;22;45243;-67
2023/02/18 03:01:39;;;;;;;;;9.00;9.00;;;;;13.93;60.70;102282.88;6245873;22;47784;-68
2023/02/18 03:04:26;;;;;;;;;9.00;8.25;;;;;13.91;60.45;102287.28;6248407;22;45275;-67
2023/02/18 03:07:10;;;;;;;;;11.25;11.25;;;;;13.89;60.57;102273.19;6246255;22;45131;-67
2023/02/18 03:10:06;;;;;;;;;10.00;9.00;;;;;13.89;60.65;102277.63;6272084;22;45576;-67
2023/02/18 03:12:48;;;;;;;;;11.50;9.75;;;;;13.87;60.91;102271.44;6247764;22;45227;-67
2023/02/18 03:15:36;;;;;;;;;10.25;8.75;;;;;13.87;60.47;102288.16;6248433;22;45261;-68
2023/02/18 03:18:14;;;;;;;;;11.25;11.00;;;;;13.86;60.92;102278.50;6262026;22;45333;-67
2023/02/18 03:20:47;;;;;;;;;6.75;6.75;;;;;13.81;60.92;102272.34;6278966;22;45269;-68
2023/02/18 03:23:18;;;;;;;;;11.50;10.50;;;;;13.87;60.59;102271.44;6278627;22;46068;-67
2023/02/18 03:25:43;;;;;;;;;10.00;8.25;;;;;13.83;60.70;102262.66;6250336;22;45254;-67
2023/02/18 03:28:16;;;;;;;;;13.50;10.75;;;;;13.85;60.46;102270.56;6279006;22;45402;-67
2023/02/18 03:30:54;;;;;;;;;11.00;10.50;;;;;13.78;60.82;102270.59;6251306;22;45320;-67
2023/02/18 03:33:26;;;;;;;;;11.50;10.25;;;;;13.81;60.55;102267.03;6278941;22;45249;-67
2023/02/18 03:35:54;;;;;;;;;9.50;9.50;;;;;13.77;60.55;102260.91;6279029;22;45247;-67
2023/02/18 03:38:24;;;;;;;;;12.75;11.50;;;;;13.77;61.14;102254.75;6278703;22;45347;-67
2023/02/18 03:40:50;;;;;;;;;11.50;11.25;;;;;13.78;61.12;102262.66;6250890;22;45333;-67
2023/02/18 03:43:16;;;;;;;;;9.75;9.75;;;;;13.78;60.93;102259.16;6251059;22;47078;-67
2023/02/18 03:45:42;;;;;;;;;13.75;10.00;;;;;13.76;60.98;102258.25;6279266;22;45214;-67
2023/02/18 03:48:07;;;;;;;;;11.00;11.00;;;;;13.75;60.96;102259.16;6251064;22;45209;-67
2023/02/18 03:50:33;;;;;;;;;9.75;9.75;;;;;13.75;60.64;102257.41;6251199;22;45724;-67
2023/02/18 03:52:58;;;;;;;;;13.00;10.75;;;;;13.78;60.95;102256.50;6278984;22;45379;-67
2023/02/18 03:55:24;;;;;;;;;9.00;9.00;;;;;13.75;61.21;102252.09;6278843;22;45229;-67
2023/02/18 03:57:49;;;;;;;;;12.00;12.00;;;;;13.75;60.94;102248.59;6279009;22;45216;-67
2023/02/18 04:00:15;;;;;;;;;11.75;11.75;;;;;13.77;60.73;102255.63;6279199;22;45576;-67
2023/02/18 04:02:40;;;;;;;;;11.75;11.75;;;;;13.76;60.91;102252.97;6250850;22;47413;-67
2023/02/18 04:05:06;;;;;;;;;17.50;14.25;;;;;13.76;60.97;102261.81;6279129;22;45201;-67
2023/02/18 04:07:32;;;;;;;;;12.00;11.50;;;;;13.76;60.96;102258.25;6278250;22;45219;-67
2023/02/18 04:09:57;;;;;;;;;14.00;12.75;;;;;13.74;60.66;102252.13;6278951;22;45149;-67
2023/02/18 04:12:23;;;;;;;;;11.50;10.75;;;;;13.71;60.60;102247.72;6250295;22;46118;-67
2023/02/18 04:14:48;;;;;;;;;12.75;10.50;;;;;13.70;60.90;102253.88;6278765;22;45229;-67
2023/02/18 04:17:13;;;;;;;;;10.75;10.25;;;;;13.72;60.79;102253.88;6278632;22;45422;-67
2023/02/18 04:19:39;;;;;;;;;11.00;10.75;;;;;13.75;60.56;102261.81;6278867;22;45450;-67
2023/02/18 04:22:04;;;;;;;;;14.50;12.00;;;;;13.72;60.50;102259.16;6278784;22;45171;-67
2023/02/18 04:24:29;;;;;;;;;8.25;8.25;;;;;13.64;60.41;102243.34;6251117;22;45186;-67
2023/02/18 04:26:55;;;;;;;;;13.50;11.50;;;;;13.67;60.49;102256.53;6278330;22;45216;-67
2023/02/18 04:29:20;;;;;;;;;10.25;8.25;;;;;13.71;60.54;102255.66;6251144;22;45189;-67
2023/02/18 04:31:45;;;;;;;;;13.50;12.50;;;;;13.67;60.74;102250.38;6278715;22;46116;-69
2023/02/18 04:34:10;;;;;;;;;14.25;12.50;;;;;13.67;60.47;102256.53;6251180;22;45163;-67
2023/02/18 04:36:36;;;;;;;;;10.00;10.00;;;;;13.71;60.74;102262.69;6277055;22;45364;-67
2023/02/18 04:39:02;;;;;;;;;10.75;10.75;;;;;13.69;60.39;102262.69;6250973;22;45427;-67
2023/02/18 04:41:27;;;;;;;;;10.75;10.00;;;;;13.70;60.24;102255.63;6250434;22;47111;-67
2023/02/18 04:43:52;;;;;;;;;12.00;12.00;;;;;13.67;60.11;102251.25;6278743;22;45308;-67
2023/02/18 04:46:18;;;;;;;;;12.00;11.00;;;;;13.68;60.03;102257.41;6247661;22;45186;-67
2023/02/18 04:48:43;;;;;;;;;12.00;10.00;;;;;13.68;60.46;102252.13;6275941;22;45251;-67
2023/02/18 04:51:08;;;;;;;;;14.75;12.25;;;;;13.65;60.30;102253.91;6277626;22;45312;-67
2023/02/18 04:53:34;;;;;;;;;12.75;11.00;;;;;13.68;60.03;102246.84;6249597;22;45206;-67
2023/02/18 04:55:59;;;;;;;;;10.50;9.25;;;;;13.68;60.21;102249.50;6276985;22;45290;-67
2023/02/18 04:58:25;;;;;;;;;9.25;9.25;;;;;13.69;60.00;102253.91;6249178;22;45411;-67
2023/02/18 05:00:50;;;;;;;;;10.75;10.75;;;;;13.64;60.41;102246.84;6249218;22;46573;-69
2023/02/18 05:03:16;;;;;;;;;10.50;10.50;;;;;13.68;60.17;102249.50;6277339;22;45251;-67
2023/02/18 05:05:41;;;;;;;;;10.50;9.00;;;;;13.71;60.00;102257.41;6277070;22;45174;-67
2023/02/18 05:08:07;;;;;;;;;11.25;11.25;;;;;13.65;59.98;102245.97;6276997;22;45370;-67
2023/02/18 05:10:33;;;;;;;;;10.50;10.25;;;;;13.71;60.09;102249.47;6248891;22;47519;-67
2023/02/18 05:12:59;;;;;;;;;9.50;8.25;;;;;13.67;60.18;102251.25;6277161;22;45431;-67
2023/02/18 05:15:25;;;;;;;;;9.00;8.75;;;;;13.69;60.39;102251.25;6277435;22;45292;-67
2023/02/18 05:17:50;;;;;;;;;12.50;11.00;;;;;13.68;59.83;102252.13;6274751;22;45273;-67
2023/02/18 05:20:16;;;;;;;;;8.25;7.00;;;;;13.65;59.68;102253.03;6278513;22;45311;-67
2023/02/18 05:22:42;;;;;;;;;9.00;8.00;;;;;13.64;59.67;102249.50;6249818;22;45325;-67
2023/02/18 05:25:07;;;;;;;;;11.00;11.00;;;;;13.66;59.63;102249.50;6252250;22;45186;-67
2023/02/18 05:27:33;;;;;;;;;10.00;9.25;;;;;13.64;59.70;102262.69;6277343;22;45535;-67
2023/02/18 05:29:58;;;;;;;;;10.75;9.00;;;;;13.64;59.74;102257.41;6279697;22;45300;-67
2023/02/18 05:32:24;;;;;;;;;10.25;10.25;;;;;13.60;59.21;102260.97;6279744;22;45275;-67
2023/02/18 05:34:49;;;;;;;;;9.00;9.00;;;;;13.58;59.65;102270.63;6279977;22;45251;-67
2023/02/18 05:37:17;;;;;;;;;8.50;8.25;;;;;13.59;59.59;102259.19;6251546;22;45326;-67
2023/02/18 05:39:43;;;;;;;;;9.00;8.00;;;;;13.58;59.37;102268.00;6279637;22;45280;-68
2023/02/18 05:42:08;;;;;;;;;12.75;9.75;;;;;13.60;59.34;102271.53;6279003;22;45198;-68
2023/02/18 05:44:33;;;;;;;;;9.75;9.50;;;;;13.59;59.28;102271.53;6251813;22;45106;-68
2023/02/18 05:47:01;;;;;;;;;12.50;12.00;;;;;13.56;59.49;102276.81;6279549;22;45347;-68
2023/02/18 05:49:28;;;;;;;;;10.75;9.00;;;;;13.58;59.34;102278.56;6279468;22;46111;-68
2023/02/18 05:51:54;;;;;;;;;10.25;10.25;;;;;13.56;59.21;102268.88;6279416;22;45340;-67
2023/02/18 05:54:20;;;;;;;;;15.25;10.75;;;;;13.57;59.55;102268.91;6250913;22;45305;-67
2023/02/18 05:56:45;;;;;;;;;14.50;10.00;;;;;13.56;59.52;102260.97;6278873;22;45396;-67
2023/02/18 05:59:11;;;;;;;;;7.75;6.25;;;;;13.55;59.04;102259.22;6279627;22;45365;-67
2023/02/18 06:01:36;;;;;;;;;9.75;9.25;;;;;13.54;59.45;102253.06;6279053;22;45327;-68
2023/02/18 06:04:01;;;;;;;;;8.25;8.25;;;;;13.53;59.13;102261.84;6279750;22;45205;-68
2023/02/18 06:06:27;;;;;;;;;10.75;9.50;;;;;13.54;59.22;102265.38;6279734;22;45174;-67
2023/02/18 06:08:52;;;;;;;;;10.00;9.00;;;;;13.51;59.24;102261.00;6251375;22;46899;-67
2023/02/18 06:11:18;;;;;;;;;8.25;8.25;;;;;13.47;58.91;102259.22;6278953;22;45192;-67
2023/02/18 06:13:43;;;;;;;;;9.50;9.50;;;;;13.48;59.42;102264.53;6279598;22;45232;-67
2023/02/18 06:16:09;;;;;;;;;8.00;8.00;;;;;13.47;59.29;102256.56;6279461;22;45448;-67
2023/02/18 06:18:34;;;;;;;;;9.25;8.00;;;;;13.45;58.60;102253.09;6249936;22;46831;-70
2023/02/18 06:20:59;;;;;;;;;9.75;9.75;;;;;13.44;58.88;102253.97;6279033;22;45192;-67
2023/02/18 06:23:25;;;;;;;;;10.75;9.00;;;;;13.40;58.61;102253.09;6277199;22;45284;-67
2023/02/18 06:25:50;;;;;;;;;10.00;8.75;;;;;13.40;58.65;102263.66;6279176;22;45111;-67
2023/02/18 06:28:17;;;;;;;;;10.25;9.50;;;;;13.37;58.71;102260.09;6250995;22;46856;-67
2023/02/18 06:30:43;;;;;;;;;8.25;8.25;;;;;13.38;58.60;102269.81;6279074;22;45253;-67
2023/02/18 06:33:08;;;;;;;;;9.25;9.00;;;;;13.33;58.91;102262.75;6279541;22;45300;-67
2023/02/18 06:35:34;;;;;;;;;10.25;9.25;;;;;13.32;59.08;102258.34;6279238;22;45225;-67
2023/02/18 06:37:59;;;;;;;;;9.50;7.75;;;;;13.30;58.87;102253.94;6251469;22;48334;-67
2023/02/18 06:40:25;;;;;;;;;11.75;10.50;;;;;13.31;58.47;102253.06;6276823;22;45273;-67
2023/02/18 06:42:50;;;;;;;;;6.00;6.00;;;;;13.30;58.47;102256.59;6251491;22;45481;-67
2023/02/18 06:45:15;;;;;;;;;9.75;7.75;;;;;13.27;58.17;102257.47;6279404;22;45287;-67
2023/02/18 06:47:41;;;;;;;;;11.00;10.00;;;;;13.25;58.47;102267.16;6279058;22;46079;-67
2023/02/18 06:50:07;;;;;;;;;10.50;9.00;;;;;13.22;58.63;102258.34;6279429;22;45238;-67
2023/02/18 06:52:33;;;;;;;;;7.25;7.25;;;;;13.23;57.99;102250.44;6277706;22;45257;-67
2023/02/18 06:54:58;;;;;;;;;12.75;10.75;;;;;13.23;58.38;102253.09;6279227;22;45161;-67
2023/02/18 06:57:24;;;;;;;;;9.00;9.00;;;;;13.19;57.85;102261.00;6276335;22;45670;-69
2023/02/18 06:59:49;;;;;;;;;9.25;8.25;;;;;13.17;58.10;102255.72;6279197;22;45066;-68
2023/02/18 07:02:15;;;;;;;;;11.25;8.75;;;;;13.09;58.10;102253.06;6277501;22;45278;-70
2023/02/18 07:04:40;;;;;;;;;9.75;9.75;;;;;13.13;57.95;102256.59;6279055;22;45312;-70
2023/02/18 07:07:05;;;;;;;;;11.00;9.75;;;;;13.10;57.71;102248.69;6278738;22;46113;-70
2023/02/18 07:09:31;;;;;;;;;7.50;5.50;;;;;13.10;57.89;102260.13;6279209;22;45174;-68
2023/02/18 07:11:56;;;;;;;;;4.50;4.00;;;;;13.07;57.56;102261.88;6278894;22;45375;-70
2023/02/18 07:14:23;;;;;;;;;11.00;9.00;;;;;13.09;57.76;102275.97;6278952;22;45312;-70
2023/02/18 07:16:48;;;;;;;;;7.75;7.75;;;;;13.02;57.51;102267.19;6277122;22;45342;-72
2023/02/18 07:19:14;;;;;;;;;11.75;9.75;;;;;13.03;57.72;102275.97;6249491;22;45261;-70
2023/02/18 07:21:39;;;;;;;;;8.50;7.50;;;;;13.00;57.43;102264.53;6278191;22;45785;-72
2023/02/18 07:24:05;;;;;;;;;8.75;8.00;;;;;12.96;57.26;102272.44;6278964;22;45316;-74
2023/02/18 07:26:30;;;;;;;;;6.50;6.50;;;;;12.94;57.06;102264.53;6278833;22;45271;-71
2023/02/18 07:28:55;;;;;;;;;9.00;7.50;;;;;12.84;57.05;102252.19;6276386;22;45363;-75
2023/02/18 07:31:21;;;;;;;;;8.75;8.00;;;;;12.91;57.59;102274.22;6279195;22;45313;-71
2023/02/18 07:33:46;;;;;;;;;8.75;8.75;;;;;12.93;57.16;102273.34;6251080;22;45385;-71
2023/02/18 07:36:11;;;;;;;;;8.50;7.75;;;;;12.88;57.55;102268.91;6278937;22;46255;-71
2023/02/18 07:38:37;;;;;;;;;7.50;7.50;;;;;12.84;57.64;102268.03;6278526;22;45240;-71
2023/02/18 07:41:03;;;;;;;;;7.00;6.75;;;;;12.83;57.46;102266.28;6278792;22;45189;-73
2023/02/18 07:43:28;;;;;;;;;6.25;5.50;;;;;12.87;56.95;102273.31;6278513;22;45107;-72
2023/02/18 07:45:53;;;;;;;;;5.00;5.00;;;;;12.88;57.03;102276.81;6251099;22;48004;-72
2023/02/18 07:48:19;;;;;;;;;2.25;2.00;;;;;12.83;57.26;102266.28;6278886;22;45213;-73
2023/02/18 07:50:45;;;;;;;;;5.75;5.25;;;;;12.84;57.05;102265.38;6251060;22;45194;-73
2023/02/18 07:53:12;;;;;;;;;9.00;8.75;;;;;12.86;57.19;102276.84;6279203;22;45098;-71
2023/02/18 07:55:50;;;;;;;;;5.25;5.25;;;;;12.83;57.19;102275.06;6278547;22;46268;-71
2023/02/18 07:58:22;;;;;;;;;7.00;7.00;;;;;12.81;56.94;102266.28;6278464;22;45306;-71
2023/02/18 08:00:48;;;;;;;;;6.50;6.50;;;;;12.87;56.69;102267.16;6279130;22;45310;-71
2023/02/18 08:03:16;;;;;;;;;4.50;4.50;;;;;12.81;56.92;102262.75;6278488;22;45382;-72
2023/02/18 08:05:42;;;;;;;;;7.75;5.25;;;;;12.82;56.79;102267.16;6278690;22;46173;-71
2023/02/18 08:08:15;;;;;;;;;9.00;8.50;;;;;12.82;56.72;102273.31;6276380;22;46023;-72
2023/02/18 08:10:41;;;;;;;;;3.00;3.00;;;;;12.87;57.15;102275.97;6276828;22;45241;-72
2023/02/18 08:13:08;;;;;;;;;5.75;4.75;;;;;12.84;56.58;102268.94;6278762;22;45161;-72
2023/02/18 08:15:33;;;;;;;;;3.75;3.75;;;;;12.87;56.72;102289.16;6250958;22;47462;-72
2023/02/18 08:17:59;;;;;;;;;4.75;3.75;;;;;12.77;56.71;102275.06;6272137;22;45892;-72
2023/02/18 08:20:25;;;;;;;;;3.00;3.00;;;;;12.84;56.72;102286.50;6276847;22;45406;-72
2023/02/18 08:22:50;;;;;;;;;2.00;2.00;;;;;12.76;57.06;102275.06;6249789;22;45989;-71
2023/02/18 08:25:16;;;;;;;;;4.00;3.00;;;;;12.80;56.95;102282.09;6277080;22;45444;-72
2023/02/18 08:27:41;;;;;;;;;4.75;4.75;;;;;12.87;56.79;102289.16;6276509;22;45341;-71
2023/02/18 08:30:07;;;;;;;;;5.00;3.25;;;;;12.92;56.64;102300.59;6277936;22;45276;-72
2023/02/18 08:32:33;;;;;;;;;5.75;4.00;;;;;12.93;56.62;102309.38;6275855;22;45333;-71
2023/02/18 08:34:58;;;;;;;;;7.25;4.75;;;;;12.92;56.82;102294.44;6277322;22;46189;-71
2023/02/18 08:37:24;;;;;;;;;4.50;4.50;;;;;12.91;56.50;102297.97;6277203;22;45276;-71
2023/02/18 08:39:49;;;;;;;;;4.00;3.00;;;;;12.93;56.56;102307.63;6277374;22;45293;-71
2023/02/18 08:42:18;;;;;;;;;5.25;4.25;;;;;12.90;56.28;102302.34;6249281;22;45430;-71
2023/02/18 08:44:43;;;;;;;;;6.00;4.00;;;;;12.92;56.81;102318.19;6277234;22;46387;-72
2023/02/18 08:47:08;;;;;;;;;6.75;4.00;;;;;12.91;56.17;102305.88;6277133;22;45196;-72
2023/02/18 08:49:35;;;;;;;;;3.00;3.00;;;;;12.91;56.56;102309.38;6223118;22;45282;-71
2023/02/18 08:52:02;;;;;;;;;2.25;2.25;;;;;12.94;56.08;102314.69;6249490;22;45759;-71
2023/02/18 08:54:27;;;;;;;;;3.00;3.00;;;;;12.93;55.98;102310.28;6275957;22;46216;-72
2023/02/18 08:56:54;;;;;;;;;3.00;2.00;;;;;12.92;56.11;102308.50;6277789;22;45319;-71
2023/02/18 08:59:20;;;;;;;;;5.75;3.00;;;;;12.91;56.70;102308.50;6249524;22;45328;-72
2023/02/18 09:01:45;;;;;;;;;4.25;4.25;;;;;12.92;56.64;102303.22;6250650;22;45237;-72
2023/02/18 09:04:10;;;;;;;;;5.50;4.50;;;;;12.89;56.47;102311.13;6278581;22;45181;-72
2023/02/18 09:06:37;;;;;;;;;2.50;2.50;;;;;12.88;56.60;102306.75;6278742;22;45243;-72
2023/02/18 09:09:03;;;;;;;;;3.00;2.75;;;;;12.92;56.52;102308.50;6278220;22;45280;-72
2023/02/18 09:11:28;;;;;;;;;2.50;2.50;;;;;12.91;56.52;102311.16;6250238;22;45599;-72
2023/02/18 09:13:53;;;;;;;;;5.50;3.00;;;;;12.95;56.45;102324.31;6278562;22;45537;-71
2023/02/18 09:16:19;;;;;;;;;4.50;2.50;;;;;12.92;56.27;102305.88;6278560;22;45227;-73
2023/02/18 09:18:46;;;;;;;;;3.00;3.00;;;;;12.91;56.38;102306.75;6278350;22;45201;-72
2023/02/18 09:21:14;;;;;;;;;2.00;1.00;;;;;12.94;56.12;102311.13;6276544;22;45527;-72
2023/02/18 09:23:41;;;;;;;;;2.25;2.25;;;;;12.94;56.00;102319.06;6277818;22;45930;-72
2023/02/18 09:26:08;;;;;;;;;3.00;2.00;;;;;12.95;56.14;102315.53;6277736;22;45261;-72
2023/02/18 09:28:35;;;;;;;;;3.00;3.00;;;;;12.93;56.38;102320.81;6278347;22;45224;-73
2023/02/18 09:31:15;;;;;;;;;3.75;3.00;;;;;12.93;56.40;102315.53;6278107;22;45458;-72
2023/02/18 09:33:49;;;;;;;;;3.25;3.25;;;;;12.92;56.32;102320.84;6278121;22;45549;-72
2023/02/18 09:36:16;;;;;;;;;2.00;2.00;;;;;12.94;56.44;102319.94;6278410;22;45248;-73
2023/02/18 09:38:41;;;;;;;;;1.75;1.75;;;;;12.96;56.60;102328.72;6277952;22;45260;-72
2023/02/18 09:41:23;;;;;;;;;2.00;1.00;;;;;12.97;56.12;102319.06;6277785;22;45154;-73
2023/02/18 09:43:53;;;;;;;;;2.00;1.00;;;;;12.98;56.11;102319.06;6278104;22;46472;-73
2023/02/18 09:46:34;;;;;;;;;2.50;1.00;;;;;13.02;56.86;102330.50;6277842;22;45261;-73
2023/02/18 09:49:02;;;;;;;;;2.50;1.50;;;;;13.00;56.30;102325.25;6277740;22;45319;-72
2023/02/18 09:51:28;;;;;;;;;3.00;1.25;;;;;12.99;56.27;102323.47;6277867;22;45436;-72
2023/02/18 09:53:53;;;;;;;;;3.00;2.50;;;;;13.00;56.05;102322.59;6277896;22;45165;-72
2023/02/18 09:56:26;;;;;;;;;0.50;0.50;;;;;13.00;56.35;102325.25;6250002;22;45168;-72
2023/02/18 09:58:53;;;;;;;;;0.00;0.00;;;;;12.98;56.42;102321.72;6277616;22;45181;-72
2023/02/18 10:01:40;;;;;;;;;2.50;2.00;;;;;13.02;56.26;102327.88;6249325;22;45600;-72
2023/02/18 10:04:40;;;;;;;;;2.75;0.50;;;;;12.98;56.15;102316.44;6249802;22;45365;-71
2023/02/18 10:07:05;;;;;;;;;2.50;1.00;;;;;13.05;56.14;102327.84;6279009;22;45212;-71
2023/02/18 10:09:37;;;;;;;;;1.25;1.00;;;;;13.08;56.25;102332.25;6251817;22;45447;-71
2023/02/18 10:12:21;;;;;;;;;3.00;0.00;;;;;13.09;56.09;102336.66;6251329;22;45393;-71
2023/02/18 10:14:55;;;;;;;;;5.25;0.00;;;;;13.08;56.15;102326.97;6278952;22;45495;-71
2023/02/18 10:17:24;;;;;;;;;2.00;2.00;;;;;13.13;56.53;102339.31;6277430;22;45308;-72
2023/02/18 10:19:52;;;;;;;;;3.75;3.00;;;;;13.16;55.81;102338.44;6277553;22;45182;-71
2023/02/18 10:22:19;;;;;;;;;1.00;1.00;;;;;13.16;56.12;102327.88;6279230;22;45465;-71
2023/02/18 10:24:50;;;;;;;;;3.75;2.00;;;;;13.15;56.27;102339.31;6278973;22;45208;-71
2023/02/18 10:27:37;;;;;;;;;5.75;5.75;;;;;13.20;56.48;102332.28;6278468;22;45139;-71
2023/02/18 10:30:19;;;;;;;;;0.75;0.50;;;;;13.20;55.98;102332.28;6279366;22;45233;-72
2023/02/18 10:32:46;;;;;;;;;1.00;1.00;;;;;13.22;56.46;102327.88;6279352;22;45330;-71
2023/02/18 10:35:18;;;;;;;;;0.50;0.25;;;;;13.25;55.89;102322.59;6279340;22;45176;-71
2023/02/18 10:38:02;;;;;;;;;2.50;2.00;;;;;13.25;56.01;102334.91;6279146;22;45392;-71
2023/02/18 10:40:48;;;;;;;;;1.25;0.00;;;;;13.29;55.75;102329.63;6279093;22;45362;-71
2023/02/18 10:43:43;;;;;;;;;1.75;1.00;;;;;13.31;56.26;102330.50;6278954;22;45331;-71
2023/02/18 10:46:33;;;;;;;;;1.00;1.00;;;;;13.33;55.72;102320.84;6279141;22;46101;-71
2023/02/18 10:49:30;;;;;;;;;1.75;1.00;;;;;13.37;55.72;102332.31;6279314;22;45159;-71
2023/02/18 10:52:00;;;;;;;;;3.75;1.00;;;;;13.35;55.92;102335.81;6279417;22;45511;-72
2023/02/18 10:54:46;;;;;;;;;0.75;0.75;;;;;13.33;55.98;102335.78;6279247;22;45189;-71
2023/02/18 10:57:18;;;;;;;;;1.00;1.00;;;;;13.38;55.89;102325.25;6277684;22;48415;-72
2023/02/18 10:59:58;;;;;;;;;1.00;1.00;;;;;13.37;55.88;102331.38;6302963;22;45188;-69
2023/02/18 11:02:29;;;;;;;;;0.75;0.75;;;;;13.39;55.75;102338.44;6278975;22;45092;-71
2023/02/18 11:04:56;;;;;;;;;2.00;1.00;;;;;13.43;55.90;102332.31;6279176;22;45239;-73
2023/02/18 11:07:33;;;;;;;;;1.00;1.00;;;;;13.45;55.89;102324.38;6275553;22;47065;-71
2023/02/18 11:10:16;;;;;;;;;2.00;1.00;;;;;13.45;55.85;102334.94;6278804;22;45246;-75
2023/02/18 11:12:59;;;;;;;;;1.75;1.25;;;;;13.47;55.56;102327.88;6277036;22;45199;-76
2023/02/18 11:15:27;;;;;;;;;1.25;1.00;;;;;13.49;55.83;102324.34;6277987;22;45844;-73
2023/02/18 11:17:55;;;;;;;;;1.00;1.00;;;;;13.51;55.57;102327.03;6277839;22;45388;-70
2023/02/18 11:20:33;;;;;;;;;2.75;1.75;;;;;13.54;55.68;102331.41;6278939;22;45290;-71
2023/02/18 11:23:13;;;;;;;;;6.50;3.75;;;;;13.58;55.79;102330.53;6278960;22;45240;-71
2023/02/18 11:25:45;;;;;;;;;1.00;1.00;;;;;13.56;55.76;102324.34;6278820;22;45157;-71